Time;durP1;ratioP1;P1;durP2;ratioP2;P2;SDS_P1;SDS_P2;PMS_P1;PMS_P2;Temp;Humidity;BMP_temperature;BMP_pressure;BME280_temperature;BME280_humidity;BME280_pressure;Samples;Min_cycle;Max_cycle;Signal;HPM_P1;HPM_P2
2021/12/07 00:02:06;;;;;;;;;;;;;;;9.41;40.38;98935.78;4443984;32;35035;-85
2021/12/07 00:04:34;;;;;;;;;;;;;;;9.34;40.18;98929.22;4429815;32;33379;-82
2021/12/07 00:07:02;;;;;;;;;;;;;;;9.54;40.40;98928.44;4428808;32;32669;-87
2021/12/07 00:09:29;;;;;;;;;;;;;;;9.40;40.76;98931.41;4454219;32;32073;-82
2021/12/07 00:12:03;;;;;;;;;;;;;;;9.25;41.21;98941.53;4469233;32;34371;-84
2021/12/07 00:14:37;;;;;;;;;;;;;;;9.66;41.07;98937.28;4464308;32;34154;-81
2021/12/07 00:17:05;;;;;;;;;;;;;;;9.86;39.48;98940.09;4462480;32;33381;-78
2021/12/07 00:19:33;;;;;;;;;;;;;;;9.67;39.83;98927.44;4457245;32;33604;-78
2021/12/07 00:22:00;;;;;;;;;;;;;;;9.86;39.44;98929.41;4471160;32;35486;-79
2021/12/07 00:24:28;;;;;;;;;;;;;;;10.02;39.00;98929.78;4468574;32;34832;-80
2021/12/07 00:26:55;;;;;;;;;;;;;;;10.17;38.70;98943.66;4457062;32;35863;-78
2021/12/07 00:29:23;;;;;;;;;;;;;;;10.26;38.19;98945.56;4464225;32;33485;-79
2021/12/07 00:32:04;;;;;;;;;;;;;;;10.28;38.28;98953.47;4471754;32;34257;-81
2021/12/07 00:37:01;;;;;;;;;;;;;;;10.17;38.80;98943.66;4452946;32;34250;-79
2021/12/07 00:39:28;;;;;;;;;;;;;;;10.21;38.51;98947.78;4467775;32;34579;-81
2021/12/07 00:41:56;;;;;;;;;;;;;;;10.19;38.42;98952.41;4466335;32;35732;-79
2021/12/07 00:44:24;;;;;;;;;;;;;;;10.35;38.44;98941.25;4465912;32;34085;-84
2021/12/07 00:46:52;;;;;;;;;;;;;;;9.89;39.19;98942.50;4458450;32;34365;-83
2021/12/07 00:49:19;;;;;;;;;;;;;;;9.82;39.60;98936.78;4449866;32;31647;-84
2021/12/07 00:51:47;;;;;;;;;;;;;;;9.26;39.79;98940.56;4457348;32;34253;-81
2021/12/07 00:54:14;;;;;;;;;;;;;;;8.88;41.26;98946.34;4455689;32;34281;-82
2021/12/07 00:56:42;;;;;;;;;;;;;;;8.81;41.74;98942.47;4476028;32;35286;-83
2021/12/07 00:59:10;;;;;;;;;;;;;;;9.24;40.14;98937.16;4463279;32;32202;-80
2021/12/07 01:01:37;;;;;;;;;;;;;;;9.13;40.52;98939.88;4458589;32;32526;-84
2021/12/07 01:04:05;;;;;;;;;;;;;;;9.47;39.74;98934.41;4443228;32;34401;-80
2021/12/07 01:25:59;;;;;;;;;;;;;;;9.38;40.16;98920.00;4449132;32;34252;-88
2021/12/07 01:28:33;;;;;;;;;;;;;;;9.93;39.18;98928.72;4456763;32;34262;-81
2021/12/07 01:31:12;;;;;;;;;;;;;;;9.66;39.56;98925.72;4458379;32;32363;-84
2021/12/07 01:59:49;;;;;;;;;;;;;;;8.34;42.82;98917.72;4475737;32;34208;-76
2021/12/07 02:02:17;;;;;;;;;;;;;;;7.91;44.49;98918.41;4457255;32;31170;-76
2021/12/07 02:04:45;;;;;;;;;;;;;;;7.89;44.04;98921.16;4476093;32;35329;-75
2021/12/07 02:07:13;;;;;;;;;;;;;;;8.47;42.91;98929.13;4475111;32;35456;-77
2021/12/07 02:09:44;;;;;;;;;;;;;;;7.44;45.05;98925.50;4467012;32;34602;-80
2021/12/07 02:12:13;;;;;;;;;;;;;;;7.61;45.69;98927.78;4453441;32;33745;-77
2021/12/07 02:14:41;;;;;;;;;;;;;;;8.58;42.29;98921.16;4472329;32;34578;-77
2021/12/07 02:17:09;;;;;;;;;;;;;;;8.88;41.74;98922.31;4458381;32;35054;-79
2021/12/07 02:19:37;;;;;;;;;;;;;;;8.75;43.05;98921.63;4471924;32;34404;-75
2021/12/07 02:22:05;;;;;;;;;;;;;;;8.45;43.80;98917.78;4453780;32;33479;-79
2021/12/07 02:24:33;;;;;;;;;;;;;;;9.02;41.03;98911.41;4458627;32;34299;-76
2021/12/07 02:27:01;;;;;;;;;;;;;;;8.69;42.44;98914.94;4468812;32;34268;-79
2021/12/07 02:29:28;;;;;;;;;;;;;;;8.73;43.33;98908.41;4472858;32;34461;-77
2021/12/07 02:31:57;;;;;;;;;;;;;;;8.41;43.19;98908.31;4458200;32;34239;-78
2021/12/07 02:34:25;;;;;;;;;;;;;;;8.98;41.30;98909.09;4474442;32;35107;-76
2021/12/07 02:36:53;;;;;;;;;;;;;;;8.44;42.74;98910.72;4467065;32;35382;-77
2021/12/07 02:39:28;;;;;;;;;;;;;;;8.88;42.71;98903.66;4466420;32;35494;-76
2021/12/07 02:41:56;;;;;;;;;;;;;;;8.47;44.08;98913.13;4455917;32;33285;-80
2021/12/07 02:44:24;;;;;;;;;;;;;;;8.71;42.81;98906.84;4457880;32;33132;-78
2021/12/07 02:46:52;;;;;;;;;;;;;;;8.59;43.02;98906.00;4451013;32;35272;-74
2021/12/07 02:49:21;;;;;;;;;;;;;;;8.88;41.87;98889.47;4457875;32;35431;-76
2021/12/07 02:51:49;;;;;;;;;;;;;;;9.03;41.79;98888.22;4447602;32;33552;-77
2021/12/07 02:54:17;;;;;;;;;;;;;;;9.17;40.80;98892.41;4456374;32;32779;-82
2021/12/07 02:56:45;;;;;;;;;;;;;;;9.29;41.38;98892.25;4453021;32;35447;-80
2021/12/07 02:59:13;;;;;;;;;;;;;;;9.03;41.04;98881.06;4456729;32;34407;-78
2021/12/07 03:01:46;;;;;;;;;;;;;;;8.77;43.17;98885.00;4452137;32;34700;-77
2021/12/07 03:04:21;;;;;;;;;;;;;;;9.02;42.29;98882.03;4450850;32;34175;-79
2021/12/07 03:28:24;;;;;;;;;;;;;;;8.98;42.52;98882.38;4453677;32;34173;-79
2021/12/07 03:30:52;;;;;;;;;;;;;;;8.42;43.11;98888.69;4464140;32;32742;-78
2021/12/07 03:33:20;;;;;;;;;;;;;;;8.97;42.55;98886.88;4455207;32;32963;-78
2021/12/07 03:35:48;;;;;;;;;;;;;;;9.17;41.19;98887.06;4456012;32;35128;-79
2021/12/07 03:38:16;;;;;;;;;;;;;;;9.07;41.96;98881.63;4458968;32;35282;-79
2021/12/07 03:40:44;;;;;;;;;;;;;;;8.61;43.42;98886.22;4462440;32;34481;-78
2021/12/07 03:43:13;;;;;;;;;;;;;;;9.08;41.80;98889.53;4473151;32;34473;-78
2021/12/07 03:45:41;;;;;;;;;;;;;;;9.39;41.25;98889.66;4476334;32;34109;-78
2021/12/07 03:48:09;;;;;;;;;;;;;;;8.40;44.95;98887.94;4476265;32;34468;-78
2021/12/07 03:50:37;;;;;;;;;;;;;;;8.78;42.53;98879.53;4472688;32;34506;-86
2021/12/07 03:53:05;;;;;;;;;;;;;;;9.33;41.05;98888.34;4447716;32;34607;-86
2021/12/07 03:55:32;;;;;;;;;;;;;;;8.99;41.28;98894.75;4449932;32;33930;-84
2021/12/07 03:58:00;;;;;;;;;;;;;;;9.12;40.84;98889.25;4462035;32;32859;-83
2021/12/07 04:00:28;;;;;;;;;;;;;;;9.27;41.41;98890.66;4458262;32;32950;-80
2021/12/07 04:02:58;;;;;;;;;;;;;;;9.50;40.12;98894.97;4440167;32;34301;-82
2021/12/07 04:05:26;;;;;;;;;;;;;;;8.63;43.01;98897.63;4459195;32;34292;-81
2021/12/07 04:07:54;;;;;;;;;;;;;;;8.73;42.49;98894.19;4460037;32;35446;-78
2021/12/07 04:10:25;;;;;;;;;;;;;;;7.73;45.32;98903.81;4481043;32;34367;-78
2021/12/07 04:12:53;;;;;;;;;;;;;;;7.86;45.14;98900.09;4462210;32;32438;-83
2021/12/07 04:15:21;;;;;;;;;;;;;;;8.44;43.52;98901.88;4474747;32;34090;-81
2021/12/07 04:17:48;;;;;;;;;;;;;;;9.03;41.34;98889.06;4472104;32;34212;-79
2021/12/07 04:20:16;;;;;;;;;;;;;;;9.07;42.72;98892.31;4468766;32;34530;-78
2021/12/07 04:22:44;;;;;;;;;;;;;;;8.37;44.16;98899.66;4472883;32;33737;-81
2021/12/07 04:25:12;;;;;;;;;;;;;;;8.63;43.87;98894.97;4459399;32;34131;-80
2021/12/07 04:27:40;;;;;;;;;;;;;;;8.84;42.10;98903.06;4474934;32;32964;-82
2021/12/07 04:30:14;;;;;;;;;;;;;;;8.67;43.15;98906.25;4475991;32;34478;-79
2021/12/07 04:32:42;;;;;;;;;;;;;;;8.59;42.50;98908.66;4468466;32;33601;-82
2021/12/07 04:35:10;;;;;;;;;;;;;;;8.57;42.91;98900.78;4475429;32;33751;-82
2021/12/07 04:37:38;;;;;;;;;;;;;;;9.04;42.13;98912.09;4443480;32;34317;-82
2021/12/07 04:40:07;;;;;;;;;;;;;;;9.01;43.38;98912.34;4458436;32;33114;-81
2021/12/07 04:42:34;;;;;;;;;;;;;;;8.79;43.23;98904.37;4460186;32;34607;-80
2021/12/07 04:45:05;;;;;;;;;;;;;;;8.82;42.92;98906.81;4474727;32;32593;-78
2021/12/07 04:57:34;;;;;;;;;;;;;;;8.26;43.33;98906.81;4475141;32;35174;-81
2021/12/07 04:58:10;;;;;;;;;;;;;;;7.87;45.18;98922.28;4455947;32;34025;-82
2021/12/07 05:00:38;;;;;;;;;;;;;;;8.63;42.16;98924.31;4458423;32;35503;-81
2021/12/07 05:03:10;;;;;;;;;;;;;;;8.96;41.77;98927.06;4473756;32;33493;-82
2021/12/07 05:05:44;;;;;;;;;;;;;;;8.81;41.59;98929.97;4455136;32;34216;-83
2021/12/07 05:08:15;;;;;;;;;;;;;;;7.65;45.69;98939.03;4457020;32;32797;-82
2021/12/07 05:24:05;;;;;;;;;;;;;;;8.23;42.57;98931.06;4461416;32;33336;-82
2021/12/07 05:40:15;;;;;;;;;;;;;;;8.58;41.81;98937.16;4456592;32;34407;-80
2021/12/07 05:42:44;;;;;;;;;;;;;;;8.20;45.60;98939.28;4461523;32;34431;-81
2021/12/07 05:45:13;;;;;;;;;;;;;;;8.34;42.84;98937.22;4472766;32;34361;-81
2021/12/07 05:47:41;;;;;;;;;;;;;;;8.33;43.27;98938.19;4471568;32;34168;-81
2021/12/07 05:50:09;;;;;;;;;;;;;;;8.15;43.41;98928.97;4447550;32;34059;-80
2021/12/07 05:52:36;;;;;;;;;;;;;;;8.16;44.21;98923.53;4455007;32;34270;-79
2021/12/07 05:55:05;;;;;;;;;;;;;;;8.44;42.74;98925.87;4474673;32;33745;-87
2021/12/07 05:57:33;;;;;;;;;;;;;;;9.00;41.37;98921.34;4442412;32;34194;-84
2021/12/07 06:00:00;;;;;;;;;;;;;;;8.66;42.79;98919.69;4449209;32;34435;-83
2021/12/07 06:02:28;;;;;;;;;;;;;;;8.64;42.72;98922.50;4459998;32;35504;-82
2021/12/07 06:04:56;;;;;;;;;;;;;;;9.34;40.56;98923.91;4458586;32;33356;-83
2021/12/07 06:07:23;;;;;;;;;;;;;;;9.24;40.47;98917.63;4466640;32;33714;-81
2021/12/07 06:09:51;;;;;;;;;;;;;;;8.90;41.50;98922.22;4473330;32;34428;-81
2021/12/07 06:12:18;;;;;;;;;;;;;;;9.30;40.97;98917.97;4455495;32;32654;-81
2021/12/07 06:14:46;;;;;;;;;;;;;;;9.39;39.28;98924.38;4470055;32;33676;-79
2021/12/07 06:17:13;;;;;;;;;;;;;;;9.43;41.07;98916.94;4466719;32;34138;-79
2021/12/07 06:19:41;;;;;;;;;;;;;;;8.87;40.44;98920.63;4462158;32;34187;-81
2021/12/07 06:22:09;;;;;;;;;;;;;;;8.86;42.25;98922.47;4460288;32;34572;-80
2021/12/07 06:24:36;;;;;;;;;;;;;;;9.36;40.22;98924.63;4469170;32;33654;-79
2021/12/07 06:27:04;;;;;;;;;;;;;;;8.91;41.11;98915.91;4472076;32;33999;-79
2021/12/07 06:29:31;;;;;;;;;;;;;;;8.93;40.87;98912.13;4460440;32;34389;-80
2021/12/07 06:31:59;;;;;;;;;;;;;;;9.59;39.52;98916.53;4469771;32;35592;-80
2021/12/07 06:34:26;;;;;;;;;;;;;;;9.41;39.68;98916.25;4465165;32;32224;-80
2021/12/07 06:36:53;;;;;;;;;;;;;;;9.85;39.13;98923.19;4470272;32;35017;-81
2021/12/07 06:39:22;;;;;;;;;;;;;;;9.13;39.95;98926.53;4452658;32;34405;-81
2021/12/07 06:41:50;;;;;;;;;;;;;;;9.51;39.75;98920.69;4476584;32;35075;-80
2021/12/07 06:44:17;;;;;;;;;;;;;;;9.98;38.78;98920.31;4469707;32;33608;-79
2021/12/07 06:46:48;;;;;;;;;;;;;;;9.79;38.70;98926.37;4452848;32;33038;-81
2021/12/07 06:49:16;;;;;;;;;;;;;;;9.22;40.71;98920.44;4459709;32;35037;-82
2021/12/07 06:51:44;;;;;;;;;;;;;;;9.63;39.83;98920.63;4442828;32;34295;-82
2021/12/07 06:54:11;;;;;;;;;;;;;;;9.31;40.18;98924.19;4460064;32;33135;-82
2021/12/07 06:56:39;;;;;;;;;;;;;;;9.86;37.80;98922.22;4472687;32;32500;-81
2021/12/07 06:59:06;;;;;;;;;;;;;;;9.97;37.79;98924.81;4460081;32;34461;-80
2021/12/07 07:01:34;;;;;;;;;;;;;;;9.65;39.41;98924.88;4474622;32;34188;-80
2021/12/07 07:04:02;;;;;;;;;;;;;;;9.82;39.15;98936.78;4471931;32;33790;-80
2021/12/07 07:06:29;;;;;;;;;;;;;;;10.18;37.72;98938.19;4462332;32;34120;-82
2021/12/07 07:08:57;;;;;;;;;;;;;;;9.89;38.44;98940.66;4460819;32;33260;-81
2021/12/07 07:11:24;;;;;;;;;;;;;;;9.97;38.25;98938.19;4459720;32;34213;-80
2021/12/07 07:13:52;;;;;;;;;;;;;;;10.32;37.39;98944.19;4446716;32;32158;-81
2021/12/07 07:16:19;;;;;;;;;;;;;;;10.66;36.86;98942.13;4479197;32;34069;-82
2021/12/07 07:18:47;;;;;;;;;;;;;;;9.73;38.91;98946.47;4461724;32;34498;-81
2021/12/07 07:21:15;;;;;;;;;;;;;;;10.66;36.52;98936.75;4457431;32;34357;-80
2021/12/07 07:23:42;;;;;;;;;;;;;;;10.81;36.50;98929.19;4457429;32;33595;-82
2021/12/07 07:26:10;;;;;;;;;;;;;;;10.70;37.01;98939.03;4459702;32;33237;-80
2021/12/07 07:28:38;;;;;;;;;;;;;;;10.65;37.38;98937.72;4462099;32;34194;-81
2021/12/07 07:31:06;;;;;;;;;;;;;;;10.58;37.76;98941.94;4469039;32;34654;-79
2021/12/07 07:33:34;;;;;;;;;;;;;;;10.11;38.27;98945.03;4458636;32;34567;-79
2021/12/07 07:36:02;;;;;;;;;;;;;;;10.99;36.91;98943.63;4456616;32;33173;-79
2021/12/07 07:38:29;;;;;;;;;;;;;;;10.95;37.44;98943.06;4455740;32;34901;-81
2021/12/07 07:40:58;;;;;;;;;;;;;;;11.45;35.68;98943.97;4448452;32;33323;-80
2021/12/07 07:43:25;;;;;;;;;;;;;;;11.56;35.69;98958.09;4475818;32;34860;-82
2021/12/07 07:45:53;;;;;;;;;;;;;;;11.16;35.85;98959.03;4453005;32;34833;-82
2021/12/07 07:48:22;;;;;;;;;;;;;;;11.30;35.80;98954.25;4464626;32;34470;-81
2021/12/07 07:50:50;;;;;;;;;;;;;;;11.36;35.97;98961.72;4456477;32;35439;-78
2021/12/07 07:53:17;;;;;;;;;;;;;;;11.94;34.96;98966.31;4470489;32;33444;-79
2021/12/07 07:55:49;;;;;;;;;;;;;;;12.01;35.33;98959.41;4461882;32;33926;-79
2021/12/07 07:58:18;;;;;;;;;;;;;;;11.45;36.10;98968.09;4465296;32;34782;-76
2021/12/07 08:00:46;;;;;;;;;;;;;;;11.42;34.89;98964.69;4450728;32;35057;-78
2021/12/07 08:03:14;;;;;;;;;;;;;;;11.81;34.29;98961.19;4452608;32;34783;-79
2021/12/07 08:05:42;;;;;;;;;;;;;;;11.80;34.80;98965.72;4467877;32;34306;-78
2021/12/07 08:08:15;;;;;;;;;;;;;;;11.66;35.67;98956.28;4476802;32;34458;-76
2021/12/07 08:10:43;;;;;;;;;;;;;;;12.03;33.80;98963.63;4471761;32;34529;-76
2021/12/07 08:13:11;;;;;;;;;;;;;;;12.35;34.31;98970.47;4472956;32;34263;-77
2021/12/07 08:15:42;;;;;;;;;;;;;;;12.65;32.47;98968.56;4456212;32;33253;-77
2021/12/07 08:18:10;;;;;;;;;;;;;;;12.75;31.80;98977.44;4471014;32;35229;-76
2021/12/07 08:20:37;;;;;;;;;;;;;;;12.80;31.96;98972.47;4457733;32;34124;-78
2021/12/07 08:23:05;;;;;;;;;;;;;;;12.78;32.22;98978.00;4459389;32;34337;-77
2021/12/07 08:25:34;;;;;;;;;;;;;;;12.69;32.23;98978.03;4475831;32;34244;-77
2021/12/07 08:28:01;;;;;;;;;;;;;;;12.53;33.24;98990.22;4469110;32;34367;-78
2021/12/07 08:30:29;;;;;;;;;;;;;;;12.74;32.66;98973.03;4446834;32;33150;-78
2021/12/07 08:32:56;;;;;;;;;;;;;;;12.90;33.88;98970.56;4468313;32;34223;-79
2021/12/07 08:35:24;;;;;;;;;;;;;;;13.69;30.68;98961.91;4472888;32;34846;-78
2021/12/07 08:37:55;;;;;;;;;;;;;;;14.02;30.76;98961.38;4460408;32;34467;-80
2021/12/07 08:40:23;;;;;;;;;;;;;;;14.03;30.21;98966.59;4460128;32;34447;-79
2021/12/07 08:42:51;;;;;;;;;;;;;;;13.92;30.68;98964.13;4471174;32;34463;-79
2021/12/07 08:45:19;;;;;;;;;;;;;;;13.92;31.24;98964.97;4439244;32;32635;-80
2021/12/07 08:47:47;;;;;;;;;;;;;;;13.45;31.75;98958.97;4474145;32;34459;-79
2021/12/07 08:50:18;;;;;;;;;;;;;;;13.68;31.68;98959.41;4476269;32;32883;-78
2021/12/07 08:52:47;;;;;;;;;;;;;;;13.91;31.00;98955.22;4460877;32;33330;-78
2021/12/07 09:00:30;;;;;;;;;;;;;;;13.93;31.33;98969.38;4459970;32;35535;-78
2021/12/07 09:02:58;;;;;;;;;;;;;;;16.20;27.75;98953.47;4472257;32;33396;-79
2021/12/07 09:05:25;;;;;;;;;;;;;;;16.02;27.10;98952.84;4473789;32;34172;-79
2021/12/07 09:07:53;;;;;;;;;;;;;;;17.44;26.77;98949.41;4471700;32;34220;-79
2021/12/07 09:10:21;;;;;;;;;;;;;;;16.98;26.84;98952.84;4461805;32;34450;-80
2021/12/07 09:12:48;;;;;;;;;;;;;;;16.61;26.87;98948.03;4475416;32;33726;-81
2021/12/07 09:15:16;;;;;;;;;;;;;;;15.11;29.28;98950.94;4461969;32;34917;-81
2021/12/07 09:17:43;;;;;;;;;;;;;;;17.19;26.47;98948.69;4475894;32;34342;-81
2021/12/07 09:20:15;;;;;;;;;;;;;;;17.49;25.79;98948.84;4452914;32;34091;-83
2021/12/07 09:22:43;;;;;;;;;;;;;;;17.90;25.93;98941.34;4458538;32;34416;-83
2021/12/07 09:25:11;;;;;;;;;;;;;;;18.20;24.66;98942.25;4463085;32;34089;-82
2021/12/07 09:27:38;;;;;;;;;;;;;;;17.95;25.59;98940.81;4458919;32;34466;-81
2021/12/07 09:30:07;;;;;;;;;;;;;;;16.90;26.31;98938.50;4466759;32;34216;-79
2021/12/07 09:32:34;;;;;;;;;;;;;;;16.65;26.52;98937.69;4455833;32;32123;-79
2021/12/07 09:35:02;;;;;;;;;;;;;;;15.69;28.84;98928.50;4470494;32;34201;-81
2021/12/07 09:37:30;;;;;;;;;;;;;;;16.26;28.82;98928.50;4463064;32;34269;-79
2021/12/07 09:39:58;;;;;;;;;;;;;;;16.54;27.12;98920.84;4474473;32;34520;-82
2021/12/07 09:42:25;;;;;;;;;;;;;;;17.52;25.63;98922.28;4461139;32;32517;-79
2021/12/07 09:44:53;;;;;;;;;;;;;;;18.39;24.97;98913.81;4481266;32;35386;-74
2021/12/07 09:47:20;;;;;;;;;;;;;;;18.38;25.61;98914.84;4472340;32;34047;-76
2021/12/07 09:49:48;;;;;;;;;;;;;;;18.48;24.67;98919.97;4473342;32;34463;-76
2021/12/07 09:52:15;;;;;;;;;;;;;;;18.69;24.32;98911.13;4478731;32;33276;-73
2021/12/07 09:54:43;;;;;;;;;;;;;;;18.28;25.28;98904.28;4474871;32;33177;-77
2021/12/07 09:57:11;;;;;;;;;;;;;;;17.87;25.64;98909.22;4461130;32;33016;-77
2021/12/07 09:59:39;;;;;;;;;;;;;;;19.07;24.27;98903.75;4473793;32;34579;-79
2021/12/07 10:02:07;;;;;;;;;;;;;;;17.02;28.05;98906.53;4452559;32;33533;-78
2021/12/07 10:04:35;;;;;;;;;;;;;;;16.59;28.67;98908.69;4471075;32;33921;-74
2021/12/07 10:07:03;;;;;;;;;;;;;;;16.68;28.80;98908.47;4474665;32;35217;-76
2021/12/07 10:09:30;;;;;;;;;;;;;;;18.72;24.70;98898.06;4473173;32;33944;-78
2021/12/07 10:11:58;;;;;;;;;;;;;;;18.58;24.30;98891.56;4466954;32;33519;-77
2021/12/07 10:14:35;;;;;;;;;;;;;;;18.69;24.65;98897.59;4472705;32;35100;-76
2021/12/07 10:17:03;;;;;;;;;;;;;;;16.44;27.22;98895.06;4470988;32;34418;-76
2021/12/07 10:19:31;;;;;;;;;;;;;;;17.39;26.77;98887.72;4473319;32;34429;-76
2021/12/07 10:22:00;;;;;;;;;;;;;;;17.91;25.90;98894.28;4470559;32;34537;-75
2021/12/07 10:24:35;;;;;;;;;;;;;;;17.90;25.40;98885.31;4474424;32;34146;-75
2021/12/07 10:27:02;;;;;;;;;;;;;;;18.35;24.88;98885.41;4470578;32;35331;-73
2021/12/07 10:29:30;;;;;;;;;;;;;;;18.15;25.25;98876.97;4472318;32;35760;-75
2021/12/07 10:32:01;;;;;;;;;;;;;;;18.26;24.87;98873.81;4477790;32;33409;-74
2021/12/07 10:34:31;;;;;;;;;;;;;;;16.50;27.03;98884.41;4451018;32;34072;-76
2021/12/07 10:37:12;;;;;;;;;;;;;;;16.13;28.01;98886.84;4444487;32;34387;-80
2021/12/07 10:39:41;;;;;;;;;;;;;;;15.85;28.70;98881.81;4470311;32;34416;-75
2021/12/07 10:42:10;;;;;;;;;;;;;;;16.22;27.72;98883.97;4475821;32;34965;-77
2021/12/07 10:44:58;;;;;;;;;;;;;;;15.99;29.21;98894.63;4461782;32;33928;-77
2021/12/07 10:47:26;;;;;;;;;;;;;;;16.38;28.30;98891.19;4456280;32;33974;-77
2021/12/07 10:49:54;;;;;;;;;;;;;;;14.74;31.50;98889.34;4477892;32;35341;-77
2021/12/07 10:52:25;;;;;;;;;;;;;;;14.61;30.89;98887.09;4471032;32;34417;-76
2021/12/07 10:54:52;;;;;;;;;;;;;;;15.58;29.34;98881.09;4456311;32;35349;-76
2021/12/07 10:57:23;;;;;;;;;;;;;;;15.20;29.31;98879.03;4473315;32;34421;-76
2021/12/07 10:59:58;;;;;;;;;;;;;;;14.74;30.39;98878.56;4467221;32;34419;-85
2021/12/07 11:02:30;;;;;;;;;;;;;;;15.29;29.93;98869.97;4462757;32;33531;-84
2021/12/07 11:04:58;;;;;;;;;;;;;;;15.10;31.60;98869.25;4466190;32;34235;-86
2021/12/07 11:07:26;;;;;;;;;;;;;;;14.36;30.18;98869.94;4446684;32;32523;-84
2021/12/07 11:10:08;;;;;;;;;;;;;;;14.23;31.06;98875.75;4461352;32;34447;-84
2021/12/07 11:12:47;;;;;;;;;;;;;;;14.05;31.73;98872.25;4460243;32;32893;-86
2021/12/07 11:15:20;;;;;;;;;;;;;;;13.35;33.14;98866.81;4461141;32;31230;-83
2021/12/07 11:17:47;;;;;;;;;;;;;;;13.56;32.65;98861.16;4456984;32;34359;-84
2021/12/07 11:20:18;;;;;;;;;;;;;;;12.46;35.79;98862.12;4458042;32;32637;-82
2021/12/07 11:22:50;;;;;;;;;;;;;;;12.42;34.57;98863.41;4445866;32;33616;-83
2021/12/07 11:25:31;;;;;;;;;;;;;;;12.70;34.82;98870.47;4455652;32;34148;-84
2021/12/07 11:30:45;;;;;;;;;;;;;;;12.44;34.88;98869.47;4448359;32;34505;-83
2021/12/07 11:33:21;;;;;;;;;;;;;;;11.47;37.71;98859.78;4455025;32;34362;-84
2021/12/07 11:35:49;;;;;;;;;;;;;;;10.17;39.93;98860.75;4445755;32;33654;-84
2021/12/07 11:38:18;;;;;;;;;;;;;;;11.12;39.30;98863.88;4454507;32;33777;-84
2021/12/07 11:40:45;;;;;;;;;;;;;;;10.90;38.21;98864.13;4448775;32;34440;-83
2021/12/07 11:43:16;;;;;;;;;;;;;;;10.98;38.76;98872.31;4443051;32;31847;-84
2021/12/07 11:45:44;;;;;;;;;;;;;;;10.13;40.15;98862.00;4449467;32;32718;-83
2021/12/07 11:48:16;;;;;;;;;;;;;;;10.75;40.08;98863.66;4453729;32;34461;-82
2021/12/07 11:50:46;;;;;;;;;;;;;;;9.92;40.40;98860.22;4472835;32;34575;-82
2021/12/07 11:53:18;;;;;;;;;;;;;;;10.16;41.71;98859.06;4448070;32;33331;-85
2021/12/07 11:55:48;;;;;;;;;;;;;;;9.10;43.11;98862.69;4449046;32;34287;-83
2021/12/07 11:58:15;;;;;;;;;;;;;;;9.39;42.07;98862.94;4456423;32;33124;-87
2021/12/07 12:00:44;;;;;;;;;;;;;;;9.73;40.84;98852.94;4449232;32;34238;-84
2021/12/07 12:03:14;;;;;;;;;;;;;;;8.94;43.21;98855.09;4454046;32;33230;-84
2021/12/07 12:05:42;;;;;;;;;;;;;;;8.06;44.46;98865.75;4445284;32;32675;-82
2021/12/07 12:08:10;;;;;;;;;;;;;;;7.63;47.86;98851.25;4455423;32;34324;-84
2021/12/07 12:10:39;;;;;;;;;;;;;;;8.19;46.03;98860.31;4434283;32;34393;-84
2021/12/07 12:13:12;;;;;;;;;;;;;;;8.46;45.34;98852.78;4434526;32;33301;-83
2021/12/07 12:15:58;;;;;;;;;;;;;;;8.57;45.95;98857.25;4450011;32;34090;-82
2021/12/07 12:18:26;;;;;;;;;;;;;;;8.29;45.59;98842.59;4473402;32;34085;-81
2021/12/07 12:20:56;;;;;;;;;;;;;;;8.70;45.01;98844.63;4454518;32;34402;-81
2021/12/07 12:23:32;;;;;;;;;;;;;;;8.69;45.02;98855.41;4440395;32;33319;-77
2021/12/07 12:26:02;;;;;;;;;;;;;;;8.72;45.41;98861.34;4448504;32;34335;-78
2021/12/07 12:28:34;;;;;;;;;;;;;;;9.32;44.66;98864.44;4456875;32;35377;-79
2021/12/07 12:31:03;;;;;;;;;;;;;;;9.02;45.18;98873.16;4472081;32;34690;-81
2021/12/07 12:33:49;;;;;;;;;;;;;;;9.75;43.55;98879.50;4459433;32;33548;-79
2021/12/07 12:36:18;;;;;;;;;;;;;;;10.38;40.64;98880.31;4466770;32;32810;-79
2021/12/07 12:38:48;;;;;;;;;;;;;;;9.68;42.69;98887.19;4456981;32;34188;-78
2021/12/07 12:41:16;;;;;;;;;;;;;;;10.20;41.52;98885.41;4470353;32;34436;-78
2021/12/07 12:43:53;;;;;;;;;;;;;;;10.70;38.97;98888.16;4468475;32;32609;-78
2021/12/07 12:46:20;;;;;;;;;;;;;;;9.88;41.28;98880.16;4470749;32;34261;-78
2021/12/07 12:48:50;;;;;;;;;;;;;;;10.55;41.57;98886.00;4468000;32;35304;-78
2021/12/07 12:51:22;;;;;;;;;;;;;;;10.51;41.71;98885.44;4449683;32;34949;-78
2021/12/07 12:53:51;;;;;;;;;;;;;;;9.71;43.23;98891.44;4463211;32;33224;-78
2021/12/07 12:56:20;;;;;;;;;;;;;;;10.51;42.16;98892.62;4461514;32;32710;-78
2021/12/07 12:58:57;;;;;;;;;;;;;;;10.71;40.91;98903.25;4452965;32;34396;-80
2021/12/07 13:01:28;;;;;;;;;;;;;;;11.10;39.04;98906.00;4438907;32;34524;-82
2021/12/07 13:04:12;;;;;;;;;;;;;;;11.19;39.91;98907.00;4442591;32;33208;-84
2021/12/07 13:06:44;;;;;;;;;;;;;;;11.09;39.13;98920.38;4439384;32;33146;-83
2021/12/07 13:09:19;;;;;;;;;;;;;;;11.59;38.25;98909.59;4454631;32;33573;-83
2021/12/07 13:11:53;;;;;;;;;;;;;;;11.64;38.71;98919.88;4456611;32;35202;-85
2021/12/07 13:14:23;;;;;;;;;;;;;;;11.05;40.81;98915.47;4453201;32;32466;-82
2021/12/07 13:17:10;;;;;;;;;;;;;;;11.76;37.79;98918.75;4450862;32;35185;-82
2021/12/07 13:19:56;;;;;;;;;;;;;;;11.70;37.76;98913.09;4451388;32;33971;-84
2021/12/07 13:22:24;;;;;;;;;;;;;;;11.03;39.13;98904.03;4452526;32;35104;-83
2021/12/07 13:24:56;;;;;;;;;;;;;;;10.88;41.24;98901.75;4451346;32;32241;-85
2021/12/07 13:27:24;;;;;;;;;;;;;;;10.34;41.22;98908.31;4463014;32;33633;-83
2021/12/07 13:29:51;;;;;;;;;;;;;;;10.13;40.65;98910.13;4435935;32;35057;-81
2021/12/07 13:32:19;;;;;;;;;;;;;;;11.04;39.55;98917.25;4466023;32;34338;-81
2021/12/07 13:34:51;;;;;;;;;;;;;;;10.98;39.61;98903.59;4444739;32;33478;-81
2021/12/07 13:37:20;;;;;;;;;;;;;;;10.87;39.66;98916.09;4460511;32;35471;-81
2021/12/07 13:39:49;;;;;;;;;;;;;;;10.36;40.55;98911.69;4455586;32;32909;-80
2021/12/07 13:42:17;;;;;;;;;;;;;;;11.10;39.51;98905.16;4453966;32;35366;-83
2021/12/07 13:44:44;;;;;;;;;;;;;;;10.77;39.61;98909.03;4444454;32;33673;-81
2021/12/07 13:47:16;;;;;;;;;;;;;;;11.39;38.64;98915.91;4451130;32;34223;-82
2021/12/07 13:49:54;;;;;;;;;;;;;;;10.99;38.73;98910.66;4466766;32;34997;-83
2021/12/07 13:52:26;;;;;;;;;;;;;;;11.67;38.67;98927.63;4438975;32;31754;-80
2021/12/07 13:54:55;;;;;;;;;;;;;;;11.35;38.67;98928.75;4459333;32;33283;-77
2021/12/07 13:57:32;;;;;;;;;;;;;;;11.95;36.79;98927.78;4453732;32;33448;-80
2021/12/07 14:00:11;;;;;;;;;;;;;;;12.08;36.84;98931.84;4467449;32;33766;-80
2021/12/07 14:02:40;;;;;;;;;;;;;;;12.17;36.07;98935.53;4467644;32;34472;-78
2021/12/07 14:05:18;;;;;;;;;;;;;;;11.95;36.92;98939.38;4458668;32;33616;-82
2021/12/07 14:07:46;;;;;;;;;;;;;;;11.71;37.93;98934.37;4453441;32;34061;-83
2021/12/07 14:10:19;;;;;;;;;;;;;;;11.60;37.78;98923.84;4456670;32;34341;-79
2021/12/07 14:12:49;;;;;;;;;;;;;;;10.91;39.17;98928.25;4469419;32;34600;-79
2021/12/07 14:15:18;;;;;;;;;;;;;;;11.37;38.81;98931.28;4463661;32;32218;-80
2021/12/07 14:17:53;;;;;;;;;;;;;;;11.27;38.55;98933.97;4474796;32;35010;-80
2021/12/07 14:20:29;;;;;;;;;;;;;;;11.43;37.98;98931.59;4472452;32;33694;-78
2021/12/07 14:22:57;;;;;;;;;;;;;;;11.62;37.46;98929.88;4464976;32;33357;-80
2021/12/07 14:25:25;;;;;;;;;;;;;;;11.78;37.88;98934.66;4436977;32;33738;-80
2021/12/07 14:27:52;;;;;;;;;;;;;;;11.13;38.95;98943.22;4451124;32;33058;-81
2021/12/07 14:30:20;;;;;;;;;;;;;;;11.78;37.14;98943.59;4465572;32;33029;-81
2021/12/07 14:32:48;;;;;;;;;;;;;;;12.47;36.24;98942.50;4466533;32;34510;-79
2021/12/07 14:35:15;;;;;;;;;;;;;;;12.58;35.75;98941.44;4464747;32;33599;-78
2021/12/07 14:37:43;;;;;;;;;;;;;;;11.70;39.44;98943.44;4472517;32;34304;-78
2021/12/07 14:40:10;;;;;;;;;;;;;;;11.88;37.95;98946.28;4463423;32;34100;-81
2021/12/07 14:42:39;;;;;;;;;;;;;;;11.94;36.58;98945.72;4454240;32;34554;-78
2021/12/07 14:45:08;;;;;;;;;;;;;;;11.52;38.23;98945.09;4460809;32;33353;-78
2021/12/07 14:47:35;;;;;;;;;;;;;;;11.66;37.68;98940.19;4455633;32;32886;-79
2021/12/07 14:50:03;;;;;;;;;;;;;;;11.19;41.04;98944.50;4453662;32;33700;-80
2021/12/07 14:52:33;;;;;;;;;;;;;;;11.18;37.80;98940.16;4448905;32;32941;-79
2021/12/07 14:55:05;;;;;;;;;;;;;;;11.16;38.19;98947.47;4450943;32;33084;-81